createdAt,value
2023-03-29T00:01:00.182Z,-0.33
2023-03-29T00:03:28.413Z,-0.31
2023-03-29T00:06:02.968Z,-0.10
2023-03-29T00:08:32.262Z,-0.40
2023-03-29T00:10:59.727Z,-0.20
2023-03-29T00:13:27.434Z,-0.21
2023-03-29T00:15:54.706Z,-0.18
2023-03-29T00:18:21.450Z,-0.30
2023-03-29T00:20:57.270Z,-0.45
2023-03-29T00:23:25.083Z,-0.30
2023-03-29T00:25:55.687Z,-0.93
2023-03-29T00:28:22.980Z,-0.30
2023-03-29T00:30:53.321Z,-0.68
2023-03-29T00:33:20.915Z,-0.23
2023-03-29T00:35:48.507Z,-0.30
2023-03-29T00:38:15.744Z,-0.42
2023-03-29T00:40:49.494Z,-0.17
2023-03-29T00:43:17.618Z,-0.23
2023-03-29T00:45:44.522Z,-0.05
2023-03-29T00:48:13.567Z,-0.17
2023-03-29T00:50:48.807Z,0.16
2023-03-29T00:53:33.845Z,0.29
2023-03-29T00:56:06.372Z,0.15
2023-03-29T00:59:00.106Z,-0.06
2023-03-29T01:01:42.362Z,-0.08
2023-03-29T01:04:22.533Z,0.25
2023-03-29T01:06:59.141Z,-0.07
2023-03-29T01:09:30.392Z,0.26
2023-03-29T01:12:01.661Z,-0.03
2023-03-29T01:14:33.915Z,-0.01
2023-03-29T01:17:01.132Z,-0.17
2023-03-29T01:19:34.758Z,-0.12
2023-03-29T01:22:08.910Z,-0.40
2023-03-29T01:24:41.940Z,-0.32
2023-03-29T01:27:17.229Z,-0.33
2023-03-29T01:29:57.268Z,-0.45
2023-03-29T01:32:36.605Z,-0.21
2023-03-29T01:35:13.322Z,-0.16
2023-03-29T01:37:48.129Z,-0.34
2023-03-29T01:40:15.554Z,-0.31
2023-03-29T01:42:58.681Z,-0.05
2023-03-29T01:45:36.686Z,-0.36
2023-03-29T01:48:36.394Z,-0.33
2023-03-29T01:51:10.079Z,-0.18
2023-03-29T01:53:43.255Z,-0.29
2023-03-29T01:56:22.924Z,-0.20
2023-03-29T01:58:54.960Z,-0.39
2023-03-29T02:01:26.174Z,-0.18
2023-03-29T02:03:59.479Z,-0.07
2023-03-29T02:06:28.194Z,-0.44
2023-03-29T02:08:55.841Z,-0.05
2023-03-29T02:11:26.965Z,-0.04
2023-03-29T02:13:54.063Z,-0.19
2023-03-29T02:16:20.933Z,-0.04
2023-03-29T02:18:50.300Z,0.05
2023-03-29T02:21:25.507Z,-0.18
2023-03-29T02:23:55.788Z,-0.34
2023-03-29T02:26:24.014Z,-0.15
2023-03-29T02:28:51.970Z,-0.23
2023-03-29T02:31:19.052Z,0.00
2023-03-29T02:33:53.310Z,-0.14
2023-03-29T02:36:23.688Z,0.06
2023-03-29T02:38:52.814Z,-0.20
2023-03-29T02:41:20.743Z,-0.26
2023-03-29T02:43:49.013Z,0.05
2023-03-29T02:46:18.485Z,-0.33
2023-03-29T02:48:46.914Z,0.12
2023-03-29T02:51:26.723Z,-0.01
2023-03-29T02:54:09.781Z,0.01
2023-03-29T02:56:55.189Z,0.31
2023-03-29T02:59:24.726Z,0.31
2023-03-29T03:01:52.761Z,0.30
2023-03-29T03:04:22.980Z,0.02
2023-03-29T03:06:49.676Z,0.28
2023-03-29T03:09:16.373Z,0.02
2023-03-29T03:11:45.672Z,-0.14
2023-03-29T03:14:12.452Z,0.07
2023-03-29T03:16:39.268Z,0.11
2023-03-29T03:19:06.986Z,0.00
2023-03-29T03:21:35.219Z,0.13
2023-03-29T03:24:01.991Z,0.04
2023-03-29T03:26:30.196Z,0.38
2023-03-29T03:28:58.283Z,0.27
2023-03-29T03:31:53.794Z,0.06
2023-03-29T03:34:39.079Z,0.17
2023-03-29T03:37:06.022Z,0.14
2023-03-29T03:39:34.466Z,-0.03
2023-03-29T03:42:03.142Z,-0.57
2023-03-29T03:44:30.544Z,0.08
2023-03-29T03:47:17.203Z,-0.02
2023-03-29T03:49:43.956Z,-0.13
2023-03-29T03:52:11.304Z,0.03
2023-03-29T03:54:38.120Z,-0.17
2023-03-29T03:57:24.747Z,-0.09
2023-03-29T03:59:52.932Z,-0.24
2023-03-29T04:02:28.410Z,-0.18
2023-03-29T04:04:55.268Z,-0.16
2023-03-29T04:07:29.127Z,0.04
2023-03-29T04:10:04.705Z,0.08
2023-03-29T04:12:41.417Z,0.01
2023-03-29T04:15:10.508Z,0.11
2023-03-29T04:17:39.751Z,-0.06
2023-03-29T04:20:25.633Z,0.19
2023-03-29T04:22:52.630Z,-0.20
2023-03-29T04:25:22.405Z,0.09
2023-03-29T04:27:50.841Z,-0.16
2023-03-29T04:30:37.876Z,-0.06
2023-03-29T04:33:21.250Z,0.02
2023-03-29T04:35:54.576Z,-0.04
2023-03-29T04:38:23.355Z,-0.02
2023-03-29T04:40:51.679Z,-0.16
2023-03-29T04:43:40.099Z,0.08
2023-03-29T04:46:26.858Z,-0.26
2023-03-29T04:49:29.080Z,0.05
2023-03-29T04:51:55.981Z,0.15
2023-03-29T04:54:27.336Z,0.10
2023-03-29T04:57:00.220Z,0.08
2023-03-29T04:59:45.722Z,0.03
2023-03-29T05:02:33.234Z,-0.04
2023-03-29T05:05:00.241Z,-0.35
2023-03-29T05:07:26.990Z,-0.06
2023-03-29T05:09:53.882Z,-0.06
2023-03-29T05:12:21.265Z,-0.16
2023-03-29T05:14:52.492Z,-0.20
2023-03-29T05:17:21.774Z,-0.11
2023-03-29T05:19:49.512Z,0.01
2023-03-29T05:22:16.598Z,0.15
2023-03-29T05:24:43.558Z,-0.13
2023-03-29T05:27:15.245Z,0.17
2023-03-29T05:29:44.825Z,-0.27
2023-03-29T05:32:40.533Z,0.14
2023-03-29T05:35:09.795Z,0.14
2023-03-29T05:37:36.956Z,-0.02
2023-03-29T05:40:08.241Z,0.09
2023-03-29T05:42:47.278Z,0.09
2023-03-29T05:45:16.082Z,0.20
2023-03-29T05:47:42.845Z,0.34
2023-03-29T05:50:10.270Z,0.24
2023-03-29T05:52:38.610Z,0.32
2023-03-29T05:55:06.057Z,0.14
2023-03-29T05:57:36.425Z,0.17
2023-03-29T06:00:14.722Z,0.26
2023-03-29T06:02:41.906Z,0.16
2023-03-29T06:05:09.349Z,0.46
2023-03-29T06:07:40.165Z,0.48
2023-03-29T06:10:37.427Z,0.43
2023-03-29T06:13:22.703Z,0.77
2023-03-29T06:15:49.307Z,0.62
2023-03-29T06:18:16.651Z,0.49
2023-03-29T06:20:43.290Z,0.14
2023-03-29T06:23:13.986Z,0.54
2023-03-29T06:25:40.714Z,0.72
2023-03-29T06:28:07.640Z,0.64
2023-03-29T06:30:35.096Z,0.52
2023-03-29T06:33:02.007Z,0.47
2023-03-29T06:35:47.226Z,0.51
2023-03-29T06:38:17.177Z,0.43
2023-03-29T06:41:00.660Z,0.62
2023-03-29T06:43:31.687Z,0.81
2023-03-29T06:46:12.132Z,0.82
2023-03-29T06:48:53.333Z,0.71
2023-03-29T06:51:23.379Z,0.74
2023-03-29T06:53:50.859Z,0.74
2023-03-29T06:56:17.683Z,0.82
2023-03-29T06:58:54.577Z,0.47
2023-03-29T07:01:47.358Z,1.02
2023-03-29T07:04:22.339Z,1.03
2023-03-29T07:07:27.603Z,0.66
2023-03-29T07:10:09.417Z,0.88
2023-03-29T07:12:55.106Z,1.14
2023-03-29T07:15:22.378Z,1.09
2023-03-29T07:18:21.096Z,1.10
2023-03-29T07:20:48.429Z,0.94
2023-03-29T07:23:15.373Z,1.15
2023-03-29T07:25:42.186Z,1.03
2023-03-29T07:28:09.508Z,0.80
2023-03-29T07:30:37.223Z,1.03
2023-03-29T07:33:13.367Z,1.25
2023-03-29T07:35:48.032Z,1.19
2023-03-29T07:38:15.606Z,1.50
2023-03-29T07:40:47.638Z,1.63
2023-03-29T07:43:34.228Z,1.40
2023-03-29T07:46:02.401Z,1.62
2023-03-29T07:48:30.127Z,2.03
2023-03-29T07:51:01.486Z,1.73
2023-03-29T07:53:33.718Z,2.13
2023-03-29T07:56:03.846Z,2.04
2023-03-29T07:58:49.964Z,2.43
2023-03-29T08:01:19.785Z,2.58
2023-03-29T08:04:12.850Z,2.87
2023-03-29T08:06:58.274Z,2.86
2023-03-29T08:09:43.285Z,2.94
2023-03-29T08:12:10.070Z,2.73
2023-03-29T08:14:38.573Z,2.75
2023-03-29T08:17:19.280Z,3.24
2023-03-29T08:19:51.214Z,3.34
2023-03-29T08:22:23.950Z,3.35
2023-03-29T08:25:12.400Z,3.12
2023-03-29T08:27:44.729Z,3.36
2023-03-29T08:30:14.930Z,3.49
2023-03-29T08:32:41.769Z,3.36
2023-03-29T08:35:09.842Z,3.68
2023-03-29T08:38:05.622Z,3.62
2023-03-29T08:40:34.356Z,3.83
2023-03-29T08:43:22.642Z,3.65
2023-03-29T08:46:34.493Z,3.98
2023-03-29T08:49:16.998Z,3.67
2023-03-29T08:51:52.887Z,4.12
2023-03-29T08:54:29.334Z,4.14
2023-03-29T08:57:16.985Z,4.08
2023-03-29T08:59:51.395Z,4.31
2023-03-29T09:02:24.796Z,4.50
2023-03-29T09:05:22.630Z,4.56
2023-03-29T09:08:01.886Z,4.54
2023-03-29T09:10:39.557Z,4.65
2023-03-29T09:13:13.795Z,4.83
2023-03-29T09:15:52.941Z,5.00
2023-03-29T09:18:51.356Z,5.03
2023-03-29T09:21:29.252Z,5.24
2023-03-29T09:24:14.185Z,5.42
2023-03-29T09:27:09.441Z,5.24
2023-03-29T09:29:41.121Z,5.50
2023-03-29T09:32:36.464Z,5.29
2023-03-29T09:35:18.659Z,5.41
2023-03-29T09:37:49.071Z,5.32
2023-03-29T09:40:24.648Z,5.27
2023-03-29T09:43:12.209Z,5.57
2023-03-29T09:45:40.914Z,5.14
2023-03-29T09:48:17.022Z,5.78
2023-03-29T09:50:51.493Z,5.84
2023-03-29T09:53:21.172Z,6.30
2023-03-29T09:56:01.884Z,5.94
2023-03-29T09:58:44.000Z,6.27
2023-03-29T10:01:14.315Z,6.46
2023-03-29T10:03:41.544Z,6.53
2023-03-29T10:06:14.631Z,6.77
2023-03-29T10:08:51.318Z,6.85
2023-03-29T10:11:23.409Z,6.94
2023-03-29T10:13:55.030Z,6.82
2023-03-29T10:16:25.867Z,6.81
2023-03-29T10:18:54.612Z,7.18
2023-03-29T10:21:22.043Z,7.17
2023-03-29T10:23:50.240Z,7.30
2023-03-29T10:26:30.979Z,7.25
2023-03-29T10:29:00.498Z,7.51
2023-03-29T10:31:31.347Z,7.65
2023-03-29T10:34:02.820Z,7.57
2023-03-29T10:36:30.352Z,7.74
2023-03-29T10:39:01.270Z,8.19
2023-03-29T10:41:32.809Z,8.39
2023-03-29T10:44:01.483Z,8.35
2023-03-29T10:46:32.968Z,8.38
2023-03-29T10:49:06.286Z,8.21
2023-03-29T10:51:34.470Z,8.28
2023-03-29T10:54:02.466Z,8.52
2023-03-29T10:56:40.284Z,8.75
2023-03-29T10:59:42.460Z,8.88
2023-03-29T11:02:15.266Z,8.91
2023-03-29T11:05:19.163Z,8.93
2023-03-29T11:07:55.669Z,9.03
2023-03-29T11:10:45.268Z,9.16
2023-03-29T11:13:30.952Z,9.23
2023-03-29T11:16:06.575Z,9.19
2023-03-29T11:18:55.261Z,9.36
2023-03-29T11:21:28.121Z,9.43
2023-03-29T11:24:06.847Z,9.54
2023-03-29T11:27:01.094Z,9.16
2023-03-29T11:29:50.443Z,9.49
2023-03-29T11:32:24.567Z,9.63
2023-03-29T11:35:23.125Z,9.50
2023-03-29T11:37:58.520Z,9.57
2023-03-29T11:40:32.811Z,9.57
2023-03-29T11:43:02.850Z,8.97
2023-03-29T11:45:35.465Z,9.37
2023-03-29T11:48:05.419Z,9.82
2023-03-29T11:50:43.647Z,9.68
2023-03-29T11:53:17.770Z,9.88
2023-03-29T11:55:45.471Z,9.47
2023-03-29T11:58:35.990Z,9.75
2023-03-29T12:01:10.408Z,9.55
2023-03-29T12:04:12.072Z,9.62
2023-03-29T12:07:00.935Z,9.46
2023-03-29T12:09:34.345Z,9.60
2023-03-29T12:12:09.477Z,9.92
2023-03-29T12:14:55.213Z,10.10
2023-03-29T12:17:31.382Z,10.84
2023-03-29T12:20:17.679Z,11.50
2023-03-29T12:22:49.177Z,11.13
2023-03-29T12:25:23.213Z,10.90
2023-03-29T12:28:03.534Z,10.82
2023-03-29T12:30:42.700Z,11.32
2023-03-29T12:33:15.126Z,11.28
2023-03-29T12:36:05.850Z,10.68
2023-03-29T12:38:52.635Z,10.21
2023-03-29T12:41:53.409Z,10.28
2023-03-29T12:44:59.145Z,10.69
2023-03-29T12:47:43.224Z,10.88
2023-03-29T12:50:34.695Z,10.55
2023-03-29T12:53:24.989Z,10.62
2023-03-29T12:55:56.841Z,10.58
2023-03-29T12:58:40.434Z,10.64
2023-03-29T13:01:10.656Z,10.43
2023-03-29T13:03:48.538Z,10.48
2023-03-29T13:06:30.827Z,10.57
2023-03-29T13:09:04.968Z,10.69
2023-03-29T13:11:42.678Z,10.70
2023-03-29T13:14:16.847Z,11.00
2023-03-29T13:16:43.628Z,11.07
2023-03-29T13:19:30.031Z,11.10
2023-03-29T13:21:56.735Z,11.82
2023-03-29T13:24:38.670Z,11.14
2023-03-29T13:27:18.892Z,11.04
2023-03-29T13:29:57.853Z,11.33
2023-03-29T13:32:52.681Z,11.14
2023-03-29T13:35:49.975Z,10.83
2023-03-29T13:38:28.793Z,10.62
2023-03-29T13:41:18.548Z,10.91
2023-03-29T13:43:57.608Z,10.90
2023-03-29T13:46:24.498Z,11.24
2023-03-29T13:48:58.211Z,11.03
2023-03-29T13:51:40.379Z,11.21
2023-03-29T13:54:30.688Z,11.07
2023-03-29T13:57:18.571Z,11.15
2023-03-29T13:59:48.386Z,10.93
2023-03-29T14:02:39.979Z,10.81
2023-03-29T14:05:11.553Z,10.85
2023-03-29T14:07:44.968Z,10.90
2023-03-29T14:10:17.738Z,10.80
2023-03-29T14:12:46.260Z,10.90
2023-03-29T14:15:25.947Z,10.92
2023-03-29T14:17:55.171Z,10.59
2023-03-29T14:20:22.073Z,10.58
2023-03-29T14:22:49.687Z,10.90
2023-03-29T14:25:21.213Z,10.75
2023-03-29T14:27:48.020Z,10.80
2023-03-29T14:30:29.075Z,10.68
2023-03-29T14:32:56.813Z,10.57
2023-03-29T14:35:31.342Z,10.88
2023-03-29T14:37:58.926Z,10.79
2023-03-29T14:40:27.557Z,10.71
2023-03-29T14:42:55.127Z,10.83
2023-03-29T14:45:25.353Z,10.59
2023-03-29T14:47:52.883Z,10.52
2023-03-29T14:50:26.676Z,10.61
2023-03-29T14:52:54.451Z,10.52
2023-03-29T14:55:23.840Z,10.20
2023-03-29T14:57:54.249Z,10.42
2023-03-29T15:00:38.410Z,10.41
2023-03-29T15:03:14.091Z,10.41
2023-03-29T15:05:43.977Z,10.40
2023-03-29T15:08:18.470Z,10.50
2023-03-29T15:10:45.644Z,10.45
2023-03-29T15:13:20.154Z,10.75
2023-03-29T15:15:51.378Z,10.54
2023-03-29T15:18:21.156Z,10.54
2023-03-29T15:20:51.295Z,10.77
2023-03-29T15:23:17.858Z,10.79
2023-03-29T15:26:10.629Z,10.74
2023-03-29T15:28:47.044Z,10.55
2023-03-29T15:31:18.413Z,10.58
2023-03-29T15:33:45.772Z,10.73
2023-03-29T15:36:16.469Z,10.90
2023-03-29T15:38:45.350Z,10.74
2023-03-29T15:41:14.404Z,10.97
2023-03-29T15:43:44.275Z,10.84
2023-03-29T15:46:13.975Z,10.65
2023-03-29T15:48:41.033Z,10.88
2023-03-29T15:51:10.203Z,10.79
2023-03-29T15:53:36.865Z,10.99
2023-03-29T15:56:10.177Z,10.76
2023-03-29T15:58:37.510Z,10.86
2023-03-29T16:01:19.184Z,10.63
2023-03-29T16:03:49.226Z,10.44
2023-03-29T16:06:17.871Z,10.48
2023-03-29T16:08:44.586Z,10.72
2023-03-29T16:11:11.727Z,10.54
2023-03-29T16:13:38.526Z,10.70
2023-03-29T16:16:05.972Z,10.64
2023-03-29T16:18:33.834Z,10.32
2023-03-29T16:21:02.815Z,10.31
2023-03-29T16:23:29.491Z,10.47
2023-03-29T16:25:56.198Z,10.24
2023-03-29T16:28:22.901Z,10.45
2023-03-29T16:30:49.633Z,10.52
2023-03-29T16:33:16.421Z,10.29
2023-03-29T16:35:43.213Z,10.25
2023-03-29T16:38:10.059Z,10.41
2023-03-29T16:40:36.989Z,10.26
2023-03-29T16:43:04.584Z,10.26
2023-03-29T16:45:31.660Z,10.24
2023-03-29T16:47:58.617Z,10.29
2023-03-29T16:50:25.415Z,10.30
2023-03-29T16:52:52.624Z,10.30
2023-03-29T16:55:19.625Z,10.15
2023-03-29T16:57:47.437Z,10.28
2023-03-29T17:00:16.914Z,10.19
2023-03-29T17:02:44.086Z,10.25
2023-03-29T17:05:14.275Z,9.76
2023-03-29T17:07:41.088Z,9.84
2023-03-29T17:10:08.417Z,9.95
2023-03-29T17:12:36.175Z,10.11
2023-03-29T17:15:04.214Z,10.07
2023-03-29T17:17:31.281Z,9.97
2023-03-29T17:19:57.949Z,9.83
2023-03-29T17:22:25.184Z,9.74
2023-03-29T17:24:52.149Z,9.97
2023-03-29T17:27:19.018Z,10.07
2023-03-29T17:29:45.673Z,9.88
2023-03-29T17:32:12.390Z,9.80
2023-03-29T17:34:39.124Z,9.89
2023-03-29T17:37:05.890Z,8.79
2023-03-29T17:39:37.158Z,9.13
2023-03-29T17:42:05.345Z,9.48
2023-03-29T17:44:33.414Z,9.84
2023-03-29T17:47:01.214Z,9.83
2023-03-29T17:49:31.808Z,9.66
2023-03-29T17:51:58.501Z,9.83
2023-03-29T17:54:25.326Z,9.86
2023-03-29T17:56:52.087Z,9.58
2023-03-29T17:59:18.759Z,9.53
2023-03-29T18:01:45.961Z,9.38
2023-03-29T18:04:12.674Z,9.34
2023-03-29T18:06:39.501Z,9.45
2023-03-29T18:09:06.276Z,8.96
2023-03-29T18:11:33.084Z,9.12
2023-03-29T18:14:00.987Z,9.27
2023-03-29T18:16:28.522Z,9.07
2023-03-29T18:18:55.276Z,8.98
2023-03-29T18:21:22.088Z,8.84
2023-03-29T18:23:49.917Z,8.92
2023-03-29T18:26:17.357Z,8.86
2023-03-29T18:28:47.025Z,8.84
2023-03-29T18:31:14.519Z,8.96
2023-03-29T18:33:41.453Z,8.85
2023-03-29T18:36:12.541Z,8.93
2023-03-29T18:38:40.646Z,8.51
2023-03-29T18:41:08.532Z,8.63
2023-03-29T18:43:41.281Z,8.78
2023-03-29T18:46:08.225Z,8.57
2023-03-29T18:48:41.989Z,8.60
2023-03-29T18:51:12.771Z,8.75
2023-03-29T18:53:41.745Z,8.36
2023-03-29T18:56:08.904Z,8.12
2023-03-29T18:58:39.331Z,8.56
2023-03-29T19:01:06.993Z,8.03
2023-03-29T19:03:34.750Z,8.06
2023-03-29T19:06:05.991Z,8.24
2023-03-29T19:08:34.269Z,7.93
2023-03-29T19:11:02.453Z,8.32
2023-03-29T19:13:29.126Z,7.96
2023-03-29T19:15:55.850Z,7.96
2023-03-29T19:18:22.498Z,7.84
2023-03-29T19:20:53.834Z,7.68
2023-03-29T19:23:22.257Z,8.04
2023-03-29T19:25:57.104Z,7.88
2023-03-29T19:28:25.037Z,8.07
2023-03-29T19:30:51.794Z,7.85
2023-03-29T19:33:19.875Z,7.71
2023-03-29T19:35:46.688Z,7.46
2023-03-29T19:38:13.419Z,7.88
2023-03-29T19:40:44.033Z,7.89
2023-03-29T19:43:16.264Z,7.74
2023-03-29T19:45:47.975Z,8.07
2023-03-29T19:48:22.189Z,7.83
2023-03-29T19:50:50.171Z,8.06
2023-03-29T19:53:16.966Z,8.13
2023-03-29T19:55:45.267Z,8.15
2023-03-29T19:58:12.451Z,8.12
2023-03-29T20:00:39.158Z,8.00
2023-03-29T20:03:09.723Z,8.20
2023-03-29T20:05:38.576Z,8.04
2023-03-29T20:08:05.899Z,7.65
2023-03-29T20:10:33.475Z,7.87
2023-03-29T20:13:00.297Z,7.60
2023-03-29T20:15:26.993Z,7.43
2023-03-29T20:17:56.940Z,7.72
2023-03-29T20:20:25.512Z,7.61
2023-03-29T20:23:05.198Z,7.44
2023-03-29T20:25:35.600Z,7.87
2023-03-29T20:28:02.838Z,7.90
2023-03-29T20:30:29.741Z,7.65
2023-03-29T20:32:56.473Z,7.79
2023-03-29T20:35:23.207Z,7.16
2023-03-29T20:37:49.853Z,7.78
2023-03-29T20:40:16.612Z,7.18
2023-03-29T20:42:46.267Z,7.75
2023-03-29T20:45:18.576Z,7.62
2023-03-29T20:47:57.674Z,7.56
2023-03-29T20:50:28.963Z,7.67
2023-03-29T20:52:56.846Z,7.30
2023-03-29T20:55:24.064Z,7.57
2023-03-29T20:57:56.663Z,7.29
2023-03-29T21:00:25.096Z,7.35
2023-03-29T21:02:52.514Z,6.97
2023-03-29T21:05:19.279Z,7.22
2023-03-29T21:07:48.001Z,7.40
2023-03-29T21:10:18.551Z,7.47
2023-03-29T21:12:45.156Z,7.35
2023-03-29T21:15:13.568Z,7.44
2023-03-29T21:17:41.354Z,7.53
2023-03-29T21:20:11.213Z,7.33
2023-03-29T21:22:39.288Z,7.27
2023-03-29T21:25:15.597Z,7.43
2023-03-29T21:27:43.159Z,7.30
2023-03-29T21:30:10.790Z,7.50
2023-03-29T21:32:37.466Z,7.33
2023-03-29T21:35:04.336Z,7.29
2023-03-29T21:37:31.119Z,6.90
2023-03-29T21:39:57.957Z,7.21
2023-03-29T21:42:24.659Z,7.17
2023-03-29T21:44:51.374Z,7.26
2023-03-29T21:47:18.210Z,7.20
2023-03-29T21:49:45.422Z,6.97
2023-03-29T21:52:12.051Z,7.16
2023-03-29T21:54:38.640Z,7.36
2023-03-29T21:57:05.307Z,7.29
2023-03-29T21:59:31.953Z,7.06
2023-03-29T22:01:58.621Z,7.01
2023-03-29T22:04:36.495Z,6.98
2023-03-29T22:07:05.453Z,7.37
2023-03-29T22:09:35.014Z,7.52
2023-03-29T22:12:02.956Z,7.37
2023-03-29T22:14:34.572Z,7.11
2023-03-29T22:17:01.641Z,7.23
2023-03-29T22:19:28.293Z,7.00
2023-03-29T22:22:01.335Z,6.97
2023-03-29T22:24:29.119Z,7.19
2023-03-29T22:26:56.109Z,6.92
2023-03-29T22:29:22.923Z,6.77
2023-03-29T22:31:49.642Z,6.74
2023-03-29T22:34:16.389Z,6.81
2023-03-29T22:36:43.078Z,6.75
2023-03-29T22:39:10.919Z,6.77
2023-03-29T22:41:37.658Z,6.90
2023-03-29T22:44:04.555Z,6.72
2023-03-29T22:46:31.705Z,6.72
2023-03-29T22:48:58.489Z,6.91
2023-03-29T22:51:25.624Z,6.92
2023-03-29T22:53:52.390Z,6.75
2023-03-29T22:56:19.224Z,6.74
2023-03-29T22:58:46.450Z,6.93
2023-03-29T23:01:13.142Z,6.91
2023-03-29T23:03:39.963Z,6.89
2023-03-29T23:06:06.909Z,6.72
2023-03-29T23:08:34.589Z,6.87
2023-03-29T23:11:02.120Z,6.81
2023-03-29T23:13:29.504Z,6.46
2023-03-29T23:15:59.315Z,6.59
2023-03-29T23:18:28.612Z,6.43
2023-03-29T23:20:57.210Z,6.84
2023-03-29T23:23:26.738Z,6.81
2023-03-29T23:25:54.657Z,6.86
2023-03-29T23:28:24.876Z,6.81
2023-03-29T23:31:02.743Z,6.60
2023-03-29T23:33:33.550Z,6.79
2023-03-29T23:36:03.742Z,6.72
2023-03-29T23:38:32.056Z,6.63
2023-03-29T23:41:02.075Z,6.75
2023-03-29T23:43:32.755Z,6.58
2023-03-29T23:46:02.045Z,6.63
2023-03-29T23:48:53.924Z,6.52
2023-03-29T23:51:28.477Z,6.54
2023-03-29T23:53:56.403Z,6.26
2023-03-29T23:56:23.211Z,6.60
2023-03-29T23:58:50.544Z,6.57
